createdAt,value
2022-10-19T00:01:16.964Z,65.79
2022-10-19T00:06:29.455Z,65.39
2022-10-19T00:09:06.911Z,64.93
2022-10-19T00:11:37.285Z,64.81
2022-10-19T00:14:05.660Z,64.60
2022-10-19T00:16:36.609Z,64.25
2022-10-19T00:19:07.155Z,64.50
2022-10-19T00:21:35.663Z,64.49
2022-10-19T00:24:03.158Z,65.00
2022-10-19T00:26:30.382Z,65.15
2022-10-19T00:29:00.444Z,65.44
2022-10-19T00:31:28.153Z,65.28
2022-10-19T00:33:57.434Z,65.36
2022-10-19T00:36:28.372Z,65.37
2022-10-19T00:38:56.782Z,67.16
2022-10-19T00:41:27.199Z,66.35
2022-10-19T00:43:59.683Z,66.39
2022-10-19T00:46:29.649Z,65.52
2022-10-19T00:49:22.279Z,65.78
2022-10-19T00:51:55.970Z,65.75
2022-10-19T00:54:25.582Z,65.18
2022-10-19T00:56:57.577Z,65.20
2022-10-19T00:59:27.248Z,65.12
2022-10-19T01:01:54.569Z,65.01
2022-10-19T01:04:23.935Z,65.35
2022-10-19T01:06:52.630Z,65.55
2022-10-19T01:09:20.161Z,65.29
2022-10-19T01:12:13.389Z,65.64
2022-10-19T01:14:59.315Z,65.10
2022-10-19T01:17:33.009Z,65.54
2022-10-19T01:20:10.598Z,66.49
2022-10-19T01:23:00.177Z,67.49
2022-10-19T01:25:56.946Z,67.65
2022-10-19T01:28:58.257Z,67.15
2022-10-19T01:31:47.156Z,66.61
2022-10-19T01:34:29.597Z,65.73
2022-10-19T01:37:00.090Z,66.11
2022-10-19T01:39:36.502Z,66.41
2022-10-19T01:42:42.772Z,66.86
2022-10-19T01:45:31.542Z,66.59
2022-10-19T01:48:04.802Z,66.13
2022-10-19T01:50:41.242Z,66.24
2022-10-19T01:53:11.192Z,66.85
2022-10-19T01:55:43.336Z,66.33
2022-10-19T01:58:18.255Z,66.06
2022-10-19T02:00:48.809Z,66.05
2022-10-19T02:03:18.334Z,65.73
2022-10-19T02:05:47.043Z,64.34
2022-10-19T02:08:22.544Z,65.24
2022-10-19T02:10:50.767Z,66.40
2022-10-19T02:13:20.845Z,66.07
2022-10-19T02:15:53.083Z,66.33
2022-10-19T02:18:28.614Z,66.15
2022-10-19T02:20:55.843Z,65.90
2022-10-19T02:23:27.039Z,65.64
2022-10-19T02:25:56.005Z,65.26
2022-10-19T02:28:26.518Z,64.88
2022-10-19T02:30:54.029Z,66.15
2022-10-19T02:33:21.382Z,67.22
2022-10-19T02:35:49.260Z,67.48
2022-10-19T02:38:20.552Z,68.40
2022-10-19T02:41:06.681Z,68.77
2022-10-19T02:43:37.739Z,68.67
2022-10-19T02:46:12.055Z,68.87
2022-10-19T02:48:41.417Z,67.80
2022-10-19T02:51:29.101Z,67.00
2022-10-19T02:53:58.988Z,66.97
2022-10-19T02:56:28.641Z,66.43
2022-10-19T02:58:56.320Z,66.51
2022-10-19T03:01:24.933Z,65.63
2022-10-19T03:03:52.121Z,65.72
2022-10-19T03:06:19.691Z,66.71
2022-10-19T03:08:47.291Z,66.80
2022-10-19T03:11:14.523Z,67.20
2022-10-19T03:13:42.523Z,68.14
2022-10-19T03:16:14.440Z,68.06
2022-10-19T03:18:42.905Z,68.64
2022-10-19T03:21:12.918Z,67.95
2022-10-19T03:23:40.834Z,68.65
2022-10-19T03:26:12.176Z,68.43
2022-10-19T03:28:40.534Z,68.51
2022-10-19T03:31:07.815Z,68.11
2022-10-19T03:33:35.145Z,69.03
2022-10-19T03:36:22.905Z,68.12
2022-10-19T03:38:54.722Z,67.32
2022-10-19T03:41:24.206Z,66.79
2022-10-19T03:43:52.118Z,66.56
2022-10-19T03:46:20.103Z,66.12
2022-10-19T03:48:48.275Z,66.31
2022-10-19T03:51:18.690Z,66.64
2022-10-19T03:53:47.120Z,66.72
2022-10-19T03:56:17.992Z,66.69
2022-10-19T03:58:47.382Z,66.20
2022-10-19T04:01:19.422Z,66.52
2022-10-19T04:03:47.055Z,67.33
2022-10-19T04:06:21.189Z,66.96
2022-10-19T04:08:50.217Z,66.39
2022-10-19T04:11:20.370Z,66.95
2022-10-19T04:13:52.400Z,67.02
2022-10-19T04:16:21.320Z,66.34
2022-10-19T04:18:48.660Z,66.36
2022-10-19T04:21:26.261Z,66.65
2022-10-19T04:23:58.178Z,66.44
2022-10-19T04:26:25.508Z,66.56
2022-10-19T04:28:53.042Z,67.92
2022-10-19T04:31:20.825Z,68.01
2022-10-19T04:33:48.139Z,67.17
2022-10-19T04:36:15.359Z,66.88
2022-10-19T04:38:43.030Z,66.57
2022-10-19T04:41:13.489Z,66.33
2022-10-19T04:43:40.705Z,66.30
2022-10-19T04:46:11.430Z,66.70
2022-10-19T04:48:40.210Z,66.97
2022-10-19T04:51:08.783Z,66.68
2022-10-19T04:53:37.862Z,67.37
2022-10-19T04:56:08.566Z,67.26
2022-10-19T04:58:37.181Z,66.26
2022-10-19T05:01:23.529Z,66.46
2022-10-19T05:03:59.993Z,68.19
2022-10-19T05:06:28.421Z,68.58
2022-10-19T05:08:56.679Z,68.73
2022-10-19T05:11:24.049Z,69.51
2022-10-19T05:13:52.104Z,68.65
2022-10-19T05:16:22.575Z,68.49
2022-10-19T05:18:51.748Z,67.66
2022-10-19T05:21:20.984Z,67.49
2022-10-19T05:23:52.462Z,67.37
2022-10-19T05:26:21.891Z,68.38
2022-10-19T05:28:51.770Z,68.59
2022-10-19T05:31:20.905Z,68.05
2022-10-19T05:33:48.315Z,68.54
2022-10-19T05:36:22.742Z,67.94
2022-10-19T05:38:50.657Z,69.24
2022-10-19T05:41:18.972Z,69.91
2022-10-19T05:43:47.054Z,70.90
2022-10-19T05:46:20.066Z,71.50
2022-10-19T05:48:47.932Z,72.29
2022-10-19T05:51:18.777Z,72.83
2022-10-19T05:53:46.584Z,73.25
2022-10-19T05:56:16.684Z,74.38
2022-10-19T05:58:44.945Z,74.69
2022-10-19T06:01:13.001Z,75.33
2022-10-19T06:03:40.983Z,75.06
2022-10-19T06:06:09.723Z,75.37
2022-10-19T06:08:38.834Z,75.88
2022-10-19T06:11:12.060Z,76.48
2022-10-19T06:13:41.328Z,76.03
2022-10-19T06:16:10.073Z,76.30
2022-10-19T06:18:38.385Z,76.14
2022-10-19T06:21:09.205Z,75.66
2022-10-19T06:23:37.477Z,76.00
2022-10-19T06:26:07.477Z,75.68
2022-10-19T06:28:35.974Z,76.61
2022-10-19T06:31:07.060Z,76.61
2022-10-19T06:33:36.791Z,77.27
2022-10-19T06:36:16.317Z,77.34
2022-10-19T06:38:44.219Z,77.35
2022-10-19T06:41:12.171Z,77.10
2022-10-19T06:43:39.672Z,77.04
2022-10-19T06:46:08.926Z,77.93
2022-10-19T06:48:37.263Z,77.48
2022-10-19T06:51:07.690Z,77.34
2022-10-19T06:53:36.161Z,77.35
2022-10-19T06:56:06.619Z,77.44
2022-10-19T06:58:40.148Z,76.63
2022-10-19T07:01:08.818Z,77.75
2022-10-19T07:03:37.291Z,79.09
2022-10-19T07:06:08.362Z,78.10
2022-10-19T07:08:37.535Z,77.22
2022-10-19T07:11:11.242Z,77.28
2022-10-19T07:13:39.266Z,76.98
2022-10-19T07:16:16.112Z,76.56
2022-10-19T07:18:47.279Z,76.15
2022-10-19T07:21:16.556Z,80.13
2022-10-19T07:23:44.781Z,79.13
2022-10-19T07:26:16.029Z,78.29
2022-10-19T07:28:46.505Z,76.78
2022-10-19T07:31:20.748Z,75.48
2022-10-19T07:33:52.883Z,75.06
2022-10-19T07:36:20.946Z,73.11
2022-10-19T07:38:48.192Z,72.50
2022-10-19T07:41:17.586Z,71.89
2022-10-19T07:43:46.550Z,71.86
2022-10-19T07:46:18.832Z,71.66
2022-10-19T07:48:48.064Z,70.25
2022-10-19T07:51:17.362Z,70.02
2022-10-19T07:53:45.090Z,70.39
2022-10-19T07:56:18.236Z,69.34
2022-10-19T07:58:46.127Z,68.16
2022-10-19T08:01:19.701Z,69.14
2022-10-19T08:06:37.563Z,65.09
2022-10-19T08:09:05.758Z,65.77
2022-10-19T08:11:35.009Z,64.08
2022-10-19T08:14:05.016Z,64.31
2022-10-19T08:16:44.312Z,64.13
2022-10-19T08:19:14.860Z,61.65
2022-10-19T08:21:45.136Z,61.09
2022-10-19T08:24:15.498Z,60.76
2022-10-19T08:26:44.004Z,59.41
2022-10-19T08:29:16.985Z,58.53
2022-10-19T08:31:46.421Z,57.06
2022-10-19T08:34:14.862Z,57.17
2022-10-19T08:39:18.330Z,51.99
2022-10-19T08:41:58.038Z,46.76
2022-10-19T08:45:13.643Z,44.01
2022-10-19T08:47:43.694Z,41.76
2022-10-19T08:50:21.704Z,41.03
2022-10-19T08:53:17.227Z,40.48
2022-10-19T08:56:12.177Z,40.78
2022-10-19T08:58:52.321Z,39.57
2022-10-19T09:02:05.383Z,39.64
2022-10-19T09:04:40.331Z,40.19
2022-10-19T09:07:28.454Z,39.65
2022-10-19T09:10:01.369Z,40.15
2022-10-19T09:13:00.554Z,39.69
2022-10-19T09:15:33.333Z,39.23
2022-10-19T09:18:02.470Z,38.66
2022-10-19T09:20:38.912Z,38.31
2022-10-19T09:23:26.651Z,37.86
2022-10-19T09:25:56.242Z,38.18
2022-10-19T09:28:39.940Z,37.98
2022-10-19T09:31:15.260Z,37.63
2022-10-19T09:33:48.373Z,38.15
2022-10-19T09:36:22.614Z,38.32
2022-10-19T09:38:55.291Z,37.60
2022-10-19T09:41:24.461Z,37.14
2022-10-19T09:43:56.185Z,36.74
2022-10-19T09:46:39.148Z,37.28
2022-10-19T09:49:06.553Z,36.28
2022-10-19T09:51:52.481Z,36.40
2022-10-19T09:54:34.587Z,36.75
2022-10-19T09:57:03.432Z,37.40
2022-10-19T09:59:35.144Z,36.88
2022-10-19T10:02:21.494Z,36.59
2022-10-19T10:05:02.763Z,36.86
2022-10-19T10:07:36.938Z,37.25
2022-10-19T10:10:30.497Z,36.41
2022-10-19T10:13:00.056Z,36.18
2022-10-19T10:15:35.747Z,36.33
2022-10-19T10:18:03.880Z,36.20
2022-10-19T10:20:32.873Z,36.18
2022-10-19T10:23:04.787Z,35.70
2022-10-19T10:25:36.861Z,34.89
2022-10-19T10:28:23.889Z,35.06
2022-10-19T10:31:09.453Z,34.91
2022-10-19T10:33:45.000Z,34.87
2022-10-19T10:36:13.524Z,34.96
2022-10-19T10:38:47.198Z,34.00
2022-10-19T10:41:18.027Z,34.51
2022-10-19T10:44:04.743Z,34.14
2022-10-19T10:46:43.147Z,34.36
2022-10-19T10:49:21.712Z,33.59
2022-10-19T10:51:54.459Z,33.57
2022-10-19T10:54:33.302Z,33.79
2022-10-19T10:57:18.647Z,33.21
2022-10-19T11:00:02.512Z,33.25
2022-10-19T11:02:51.866Z,32.69
2022-10-19T11:05:53.556Z,32.26
2022-10-19T11:08:27.686Z,32.17
2022-10-19T11:11:02.377Z,31.53
2022-10-19T11:13:44.306Z,31.43
2022-10-19T11:16:37.983Z,32.05
2022-10-19T11:19:19.557Z,30.12
2022-10-19T11:22:15.578Z,30.36
2022-10-19T11:24:55.343Z,29.24
2022-10-19T11:27:22.610Z,28.91
2022-10-19T11:29:53.166Z,28.84
2022-10-19T11:32:57.821Z,27.83
2022-10-19T11:35:25.406Z,28.42
2022-10-19T11:38:19.098Z,28.42
2022-10-19T11:41:20.048Z,27.57
2022-10-19T11:43:56.319Z,27.70
2022-10-19T11:46:38.095Z,28.17
2022-10-19T11:49:16.105Z,26.96
2022-10-19T11:51:58.062Z,26.59
2022-10-19T11:54:43.452Z,26.12
2022-10-19T11:57:20.807Z,25.89
2022-10-19T12:00:37.601Z,26.01
2022-10-19T12:03:20.980Z,24.49
2022-10-19T12:06:13.976Z,24.33
2022-10-19T12:09:06.486Z,24.28
2022-10-19T12:12:09.617Z,24.22
2022-10-19T12:14:41.800Z,24.29
2022-10-19T12:17:16.255Z,24.08
2022-10-19T12:19:55.206Z,24.56
2022-10-19T12:22:26.870Z,25.63
2022-10-19T12:24:58.450Z,24.86
2022-10-19T12:27:47.569Z,24.50
2022-10-19T12:30:19.280Z,24.90
2022-10-19T12:32:54.349Z,24.32
2022-10-19T12:35:25.586Z,24.35
2022-10-19T12:38:05.930Z,23.98
2022-10-19T12:40:40.210Z,23.77
2022-10-19T12:43:27.076Z,22.52
2022-10-19T12:46:13.260Z,22.95
2022-10-19T12:48:40.768Z,22.99
2022-10-19T12:51:12.244Z,23.71
2022-10-19T12:53:49.169Z,22.79
2022-10-19T12:56:24.482Z,23.08
2022-10-19T12:58:59.910Z,23.19
2022-10-19T13:01:44.074Z,23.19
2022-10-19T13:04:15.414Z,22.82
2022-10-19T13:07:02.051Z,22.52
2022-10-19T13:09:39.150Z,22.62
2022-10-19T13:12:19.799Z,22.79
2022-10-19T13:14:57.260Z,22.64
2022-10-19T13:17:34.316Z,23.30
2022-10-19T13:20:14.242Z,22.65
2022-10-19T13:22:49.006Z,23.21
2022-10-19T13:25:30.769Z,22.65
2022-10-19T13:28:07.546Z,22.93
2022-10-19T13:30:46.651Z,23.44
2022-10-19T13:33:28.590Z,22.81
2022-10-19T13:35:58.885Z,23.11
2022-10-19T13:38:32.690Z,23.07
2022-10-19T13:41:04.012Z,22.52
2022-10-19T13:43:50.346Z,22.18
2022-10-19T13:46:29.664Z,21.89
2022-10-19T13:49:22.634Z,21.49
2022-10-19T13:52:04.867Z,21.17
2022-10-19T13:55:09.603Z,20.12
2022-10-19T13:57:56.982Z,19.29
2022-10-19T14:00:30.708Z,18.49
2022-10-19T14:03:20.679Z,17.75
2022-10-19T14:06:18.891Z,17.77
2022-10-19T14:08:49.413Z,17.40
2022-10-19T14:11:39.874Z,17.21
2022-10-19T14:14:20.512Z,15.81
2022-10-19T14:16:52.299Z,15.62
2022-10-19T14:19:27.325Z,15.62
2022-10-19T14:22:00.004Z,14.98
2022-10-19T14:24:29.438Z,15.65
2022-10-19T14:26:59.974Z,14.96
2022-10-19T14:29:27.840Z,14.80
2022-10-19T14:31:55.193Z,15.30
2022-10-19T14:34:22.778Z,15.51
2022-10-19T14:36:51.527Z,15.30
2022-10-19T14:39:30.186Z,16.18
2022-10-19T14:42:04.329Z,19.13
2022-10-19T14:44:40.283Z,21.09
2022-10-19T14:47:27.339Z,23.30
2022-10-19T14:49:54.665Z,24.71
2022-10-19T14:52:38.141Z,25.84
2022-10-19T14:55:18.282Z,26.52
2022-10-19T14:57:49.757Z,27.11
2022-10-19T15:00:22.917Z,28.03
2022-10-19T15:03:12.694Z,29.13
2022-10-19T15:05:47.011Z,30.09
2022-10-19T15:08:27.080Z,30.57
2022-10-19T15:10:54.371Z,31.30
2022-10-19T15:13:27.043Z,31.91
2022-10-19T15:15:55.131Z,32.14
2022-10-19T15:18:44.361Z,32.96
2022-10-19T15:21:18.727Z,33.08
2022-10-19T15:23:52.169Z,33.11
2022-10-19T15:26:28.803Z,33.17
2022-10-19T15:29:09.625Z,32.90
2022-10-19T15:31:37.127Z,33.90
2022-10-19T15:34:05.611Z,34.41
2022-10-19T15:36:32.976Z,34.12
2022-10-19T15:39:17.581Z,34.04
2022-10-19T15:41:50.846Z,33.84
2022-10-19T15:44:41.112Z,33.77
2022-10-19T15:47:15.230Z,33.52
2022-10-19T15:49:42.619Z,33.89
2022-10-19T15:52:18.738Z,34.07
2022-10-19T15:54:49.819Z,34.32
2022-10-19T15:57:28.547Z,34.39
2022-10-19T15:59:57.974Z,34.58
2022-10-19T16:02:26.416Z,34.70
2022-10-19T16:04:54.937Z,34.84
2022-10-19T16:07:33.079Z,34.97
2022-10-19T16:10:01.571Z,35.23
2022-10-19T16:12:29.360Z,35.57
2022-10-19T16:14:57.050Z,36.16
2022-10-19T16:17:24.806Z,35.95
2022-10-19T16:19:52.030Z,36.45
2022-10-19T16:22:19.642Z,36.86
2022-10-19T16:24:47.183Z,36.66
2022-10-19T16:27:16.382Z,36.60
2022-10-19T16:29:44.714Z,36.60
2022-10-19T16:32:12.219Z,36.13
2022-10-19T16:34:39.600Z,37.25
2022-10-19T16:37:07.442Z,37.55
2022-10-19T16:39:35.310Z,37.13
2022-10-19T16:42:02.499Z,38.11
2022-10-19T16:44:29.748Z,38.46
2022-10-19T16:46:57.641Z,38.08
2022-10-19T16:49:25.476Z,38.88
2022-10-19T16:51:56.271Z,39.26
2022-10-19T16:54:27.138Z,39.30
2022-10-19T16:56:55.778Z,39.80
2022-10-19T16:59:23.081Z,39.68
2022-10-19T17:01:50.848Z,40.43
2022-10-19T17:04:20.848Z,40.61
2022-10-19T17:06:48.044Z,40.28
2022-10-19T17:09:44.941Z,41.06
2022-10-19T17:12:03.173Z,41.09
2022-10-19T17:14:30.627Z,40.79
2022-10-19T17:16:57.844Z,41.12
2022-10-19T17:19:25.765Z,41.23
2022-10-19T17:21:55.470Z,41.08
2022-10-19T17:24:26.688Z,41.27
2022-10-19T17:26:54.456Z,41.42
2022-10-19T17:29:22.969Z,41.83
2022-10-19T17:31:50.562Z,41.70
2022-10-19T17:34:18.838Z,41.60
2022-10-19T17:36:47.240Z,42.28
2022-10-19T17:39:18.967Z,42.72
2022-10-19T17:41:48.196Z,42.23
2022-10-19T17:44:17.092Z,42.41
2022-10-19T17:46:44.581Z,43.67
2022-10-19T17:49:12.905Z,43.66
2022-10-19T17:51:40.772Z,43.72
2022-10-19T17:54:11.146Z,43.71
2022-10-19T17:56:40.425Z,44.73
2022-10-19T17:59:09.258Z,44.66
2022-10-19T18:01:38.031Z,44.79
2022-10-19T18:04:05.583Z,44.87
2022-10-19T18:06:36.021Z,45.19
2022-10-19T18:09:06.832Z,44.58
2022-10-19T18:11:42.360Z,45.24
2022-10-19T18:14:11.207Z,45.02
2022-10-19T18:16:44.815Z,45.36
2022-10-19T18:19:14.201Z,45.31
2022-10-19T18:21:44.489Z,46.16
2022-10-19T18:24:20.042Z,46.64
2022-10-19T18:26:51.335Z,46.85
2022-10-19T18:29:21.276Z,46.86
2022-10-19T18:31:51.696Z,47.13
2022-10-19T18:34:22.569Z,47.10
2022-10-19T18:36:51.047Z,47.08
2022-10-19T18:39:18.901Z,47.91
2022-10-19T18:41:46.247Z,47.41
2022-10-19T18:44:14.248Z,47.50
2022-10-19T18:46:41.567Z,47.82
2022-10-19T18:49:10.642Z,48.38
2022-10-19T18:51:38.466Z,47.84
2022-10-19T18:54:05.982Z,48.32
2022-10-19T18:56:36.696Z,48.33
2022-10-19T18:59:05.397Z,48.66
2022-10-19T19:01:33.318Z,48.55
2022-10-19T19:04:07.058Z,48.73
2022-10-19T19:06:36.289Z,49.04
2022-10-19T19:09:07.567Z,49.19
2022-10-19T19:11:38.339Z,49.18
2022-10-19T19:14:12.220Z,48.94
2022-10-19T19:16:41.374Z,49.12
2022-10-19T19:19:10.259Z,49.67
2022-10-19T19:21:38.443Z,49.45
2022-10-19T19:24:06.880Z,49.90
2022-10-19T19:26:38.183Z,50.27
2022-10-19T19:29:06.063Z,50.64
2022-10-19T19:31:34.236Z,50.88
2022-10-19T19:34:02.539Z,50.91
2022-10-19T19:36:30.187Z,51.65
2022-10-19T19:38:59.247Z,51.45
2022-10-19T19:41:26.567Z,51.36
2022-10-19T19:43:57.647Z,51.08
2022-10-19T19:46:24.917Z,51.59
2022-10-19T19:49:02.122Z,51.75
2022-10-19T19:51:31.624Z,51.76
2022-10-19T19:53:58.983Z,51.72
2022-10-19T19:56:26.376Z,52.40
2022-10-19T19:58:58.994Z,53.03
2022-10-19T20:01:26.814Z,52.32
2022-10-19T20:03:55.040Z,52.78
2022-10-19T20:06:25.209Z,52.45
2022-10-19T20:08:54.884Z,52.75
2022-10-19T20:11:22.708Z,52.82
2022-10-19T20:13:50.250Z,52.35
2022-10-19T20:16:28.339Z,52.31
2022-10-19T20:19:02.158Z,52.74
2022-10-19T20:21:31.722Z,52.62
2022-10-19T20:24:00.145Z,52.70
2022-10-19T20:26:28.599Z,53.26
2022-10-19T20:28:56.592Z,53.24
2022-10-19T20:31:24.910Z,54.30
2022-10-19T20:33:52.266Z,54.48
2022-10-19T20:36:25.379Z,54.80
2022-10-19T20:38:55.813Z,54.97
2022-10-19T20:41:24.915Z,55.79
2022-10-19T20:43:53.877Z,56.85
2022-10-19T20:46:24.035Z,56.88
2022-10-19T20:48:52.378Z,57.13
2022-10-19T20:51:30.676Z,57.01
2022-10-19T20:54:01.996Z,57.43
2022-10-19T20:56:36.340Z,57.32
2022-10-19T20:59:11.022Z,57.06
2022-10-19T21:01:39.874Z,57.46
2022-10-19T21:04:09.887Z,56.89
2022-10-19T21:06:43.350Z,57.60
2022-10-19T21:09:13.051Z,58.22
2022-10-19T21:11:41.936Z,56.99
2022-10-19T21:14:11.872Z,57.59
2022-10-19T21:16:39.998Z,57.75
2022-10-19T21:19:11.028Z,57.67
2022-10-19T21:21:45.057Z,57.98
2022-10-19T21:24:21.323Z,59.22
2022-10-19T21:26:48.861Z,59.43
2022-10-19T21:29:17.016Z,59.52
2022-10-19T21:31:48.779Z,59.65
2022-10-19T21:34:22.854Z,59.30
2022-10-19T21:36:50.986Z,60.46
2022-10-19T21:39:18.968Z,60.45
2022-10-19T21:41:47.119Z,61.21
2022-10-19T21:44:16.230Z,61.25
2022-10-19T21:46:46.903Z,61.76
2022-10-19T21:49:14.288Z,61.88
2022-10-19T21:51:47.483Z,61.86
2022-10-19T21:54:18.453Z,62.44
2022-10-19T21:56:46.653Z,62.76
2022-10-19T21:59:15.033Z,63.17
2022-10-19T22:01:43.291Z,63.60
2022-10-19T22:04:14.369Z,62.96
2022-10-19T22:06:42.391Z,63.75
2022-10-19T22:09:13.714Z,63.76
2022-10-19T22:11:42.211Z,63.35
2022-10-19T22:14:11.741Z,63.40
2022-10-19T22:16:40.063Z,63.26
2022-10-19T22:19:08.373Z,63.97
2022-10-19T22:21:35.957Z,64.17
2022-10-19T22:24:06.781Z,64.56
2022-10-19T22:26:37.599Z,64.57
2022-10-19T22:29:06.777Z,64.73
2022-10-19T22:31:34.600Z,65.13
2022-10-19T22:34:06.176Z,65.33
2022-10-19T22:36:33.483Z,65.09
2022-10-19T22:39:00.714Z,65.51
2022-10-19T22:41:28.423Z,66.01
2022-10-19T22:43:55.589Z,65.83
2022-10-19T22:46:22.893Z,66.05
2022-10-19T22:48:50.442Z,65.86
2022-10-19T22:51:17.795Z,66.17
2022-10-19T22:53:45.030Z,65.98
2022-10-19T22:56:13.269Z,66.57
2022-10-19T22:58:40.716Z,67.43
2022-10-19T23:01:13.284Z,67.92
2022-10-19T23:03:41.575Z,68.52
2022-10-19T23:06:11.582Z,68.90
2022-10-19T23:08:39.449Z,68.80
2022-10-19T23:11:07.219Z,68.66
2022-10-19T23:13:34.515Z,68.55
2022-10-19T23:16:02.142Z,69.08
2022-10-19T23:18:37.872Z,68.66
2022-10-19T23:21:08.377Z,68.55
2022-10-19T23:23:37.057Z,68.84
2022-10-19T23:26:07.883Z,68.39
2022-10-19T23:28:37.234Z,68.85
2022-10-19T23:31:07.746Z,68.87
2022-10-19T23:33:36.086Z,68.86
2022-10-19T23:36:13.341Z,69.07
2022-10-19T23:38:41.739Z,69.40
2022-10-19T23:41:09.293Z,69.49
2022-10-19T23:46:09.488Z,69.47
2022-10-19T23:48:37.372Z,69.84
2022-10-19T23:51:13.378Z,69.52
2022-10-19T23:53:43.543Z,69.58
2022-10-19T23:56:16.998Z,69.86
2022-10-19T23:58:45.170Z,69.72
